createdAt,value
2024-05-09T00:02:25.044Z,102442.28
2024-05-09T00:05:11.350Z,102435.22
2024-05-09T00:07:57.178Z,102440.31
2024-05-09T00:10:43.226Z,102443.63
2024-05-09T00:13:28.878Z,102441.69
2024-05-09T00:16:14.471Z,102456.50
2024-05-09T00:19:00.166Z,102452.13
2024-05-09T00:21:45.756Z,102447.94
2024-05-09T00:24:31.564Z,102449.69
2024-05-09T00:27:17.263Z,102447.97
2024-05-09T00:30:04.229Z,102459.28
2024-05-09T00:32:50.360Z,102463.59
2024-05-09T00:35:36.331Z,102458.44
2024-05-09T00:38:22.123Z,102454.94
2024-05-09T00:41:07.803Z,102458.50
2024-05-09T00:43:53.603Z,102455.91
2024-05-09T00:46:39.754Z,102449.84
2024-05-09T00:49:26.884Z,102452.53
2024-05-09T00:52:12.378Z,102459.59
2024-05-09T00:54:59.723Z,102448.28
2024-05-09T00:57:45.261Z,102448.38
2024-05-09T01:00:37.971Z,102449.28
2024-05-09T01:03:27.479Z,102454.59
2024-05-09T01:06:13.403Z,102456.41
2024-05-09T01:08:58.972Z,102465.16
2024-05-09T01:11:44.568Z,102452.97
2024-05-09T01:14:30.579Z,102459.88
2024-05-09T01:17:16.566Z,102455.50
2024-05-09T01:20:05.742Z,102455.50
2024-05-09T01:22:54.263Z,102446.72
2024-05-09T01:25:39.793Z,102449.28
2024-05-09T01:28:25.816Z,102457.09
2024-05-09T01:31:15.937Z,102458.75
2024-05-09T01:34:01.530Z,102465.69
2024-05-09T01:36:47.208Z,102461.28
2024-05-09T01:39:32.960Z,102463.91
2024-05-09T01:42:18.530Z,102464.06
2024-05-09T01:45:04.468Z,102456.38
2024-05-09T01:47:50.067Z,102466.16
2024-05-09T01:50:39.825Z,102464.56
2024-05-09T01:53:27.480Z,102463.84
2024-05-09T01:56:13.282Z,102459.50
2024-05-09T01:58:58.597Z,102456.91
2024-05-09T02:01:56.331Z,102449.94
2024-05-09T02:04:46.501Z,102448.19
2024-05-09T02:07:31.793Z,102445.50
2024-05-09T02:10:23.474Z,102444.47
2024-05-09T02:13:16.262Z,102436.56
2024-05-09T02:16:02.017Z,102441.78
2024-05-09T02:18:47.695Z,102428.63
2024-05-09T02:21:34.415Z,102434.66
2024-05-09T02:24:19.832Z,102427.63
2024-05-09T02:27:05.403Z,102432.81
2024-05-09T02:29:50.736Z,102431.00
2024-05-09T02:32:36.603Z,102439.63
2024-05-09T02:35:22.082Z,102446.63
2024-05-09T02:38:09.356Z,102439.59
2024-05-09T02:40:54.968Z,102435.94
2024-05-09T02:43:40.416Z,102441.09
2024-05-09T02:46:25.744Z,102440.97
2024-05-09T02:49:11.462Z,102446.06
2024-05-09T02:51:57.505Z,102445.06
2024-05-09T02:54:42.694Z,102440.63
2024-05-09T02:57:28.356Z,102438.72
2024-05-09T03:00:19.084Z,102448.22
2024-05-09T03:03:14.028Z,102442.06
2024-05-09T03:06:03.161Z,102446.47
2024-05-09T03:08:48.964Z,102441.19
2024-05-09T03:11:34.458Z,102449.88
2024-05-09T03:14:20.193Z,102453.34
2024-05-09T03:17:05.483Z,102458.53
2024-05-09T03:19:51.038Z,102455.94
2024-05-09T03:22:36.460Z,102458.44
2024-05-09T03:25:22.137Z,102468.00
2024-05-09T03:28:07.751Z,102463.63
2024-05-09T03:30:53.340Z,102466.19
2024-05-09T03:33:39.355Z,102469.69
2024-05-09T03:36:25.406Z,102460.03
2024-05-09T03:39:11.347Z,102459.13
2024-05-09T03:41:56.661Z,102456.47
2024-05-09T03:44:42.338Z,102452.09
2024-05-09T03:47:27.819Z,102450.34
2024-05-09T03:50:21.994Z,102450.28
2024-05-09T03:53:13.472Z,102454.56
2024-05-09T03:55:59.443Z,102450.19
2024-05-09T03:58:44.846Z,102454.47
2024-05-09T04:01:30.445Z,102448.28
2024-05-09T04:04:16.180Z,102456.09
2024-05-09T04:07:01.789Z,102455.16
2024-05-09T04:09:47.960Z,102442.00
2024-05-09T04:12:33.448Z,102455.00
2024-05-09T04:15:20.199Z,102454.94
2024-05-09T04:18:06.087Z,102451.38
2024-05-09T04:20:51.947Z,102450.47
2024-05-09T04:23:38.130Z,102453.13
2024-05-09T04:26:23.515Z,102457.50
2024-05-09T04:29:09.245Z,102463.56
2024-05-09T04:31:54.985Z,102462.72
2024-05-09T04:34:40.463Z,102463.56
2024-05-09T04:37:26.556Z,102454.81
2024-05-09T04:40:21.021Z,102458.25
2024-05-09T04:43:16.277Z,102466.06
2024-05-09T04:46:02.240Z,102464.22
2024-05-09T04:48:48.971Z,102465.13
2024-05-09T04:51:35.201Z,102468.63
2024-05-09T04:54:30.022Z,102460.72
2024-05-09T04:57:21.656Z,102465.94
2024-05-09T05:00:14.397Z,102454.59
2024-05-09T05:03:13.957Z,102466.81
2024-05-09T05:06:01.598Z,102464.25
2024-05-09T05:08:46.900Z,102456.44
2024-05-09T05:11:32.483Z,102452.06
2024-05-09T05:14:18.145Z,102457.31
2024-05-09T05:17:03.589Z,102448.63
2024-05-09T05:19:49.834Z,102447.78
2024-05-09T05:22:36.169Z,102451.34
2024-05-09T05:25:21.455Z,102450.47
2024-05-09T05:28:07.777Z,102457.50
2024-05-09T05:30:53.053Z,102457.56
2024-05-09T05:33:38.908Z,102450.59
2024-05-09T05:36:24.791Z,102449.81
2024-05-09T05:39:10.363Z,102445.63
2024-05-09T05:41:56.107Z,102454.38
2024-05-09T05:44:41.609Z,102451.00
2024-05-09T05:47:27.366Z,102445.06
2024-05-09T05:50:23.667Z,102457.44
2024-05-09T05:53:13.304Z,102462.84
2024-05-09T05:55:59.072Z,102456.94
2024-05-09T05:58:44.538Z,102458.88
2024-05-09T06:01:31.290Z,102456.41
2024-05-09T06:04:16.894Z,102457.44
2024-05-09T06:07:02.172Z,102460.13
2024-05-09T06:09:49.972Z,102463.75
2024-05-09T06:12:35.684Z,102459.56
2024-05-09T06:15:21.025Z,102457.09
2024-05-09T06:18:08.504Z,102459.84
2024-05-09T06:20:54.381Z,102466.94
2024-05-09T06:23:47.202Z,102468.81
2024-05-09T06:26:33.518Z,102460.22
2024-05-09T06:29:19.436Z,102462.09
2024-05-09T06:32:05.512Z,102459.63
2024-05-09T06:34:51.079Z,102458.03
2024-05-09T06:37:36.671Z,102456.50
2024-05-09T06:40:25.877Z,102455.78
2024-05-09T06:43:20.128Z,102457.66
2024-05-09T06:46:06.154Z,102449.03
2024-05-09T06:48:53.030Z,102452.66
2024-05-09T06:51:39.241Z,102456.31
2024-05-09T06:54:24.856Z,102454.66
2024-05-09T06:57:10.518Z,102448.72
2024-05-09T06:59:59.799Z,102453.19
2024-05-09T07:02:45.302Z,102453.28
2024-05-09T07:05:30.817Z,102453.38
2024-05-09T07:08:17.206Z,102446.47
2024-05-09T07:11:02.665Z,102450.03
2024-05-09T07:13:48.346Z,102438.75
2024-05-09T07:16:33.916Z,102438.03
2024-05-09T07:19:19.514Z,102440.78
2024-05-09T07:22:04.964Z,102433.84
2024-05-09T07:24:50.603Z,102432.25
2024-05-09T07:27:36.188Z,102421.84
2024-05-09T07:30:27.759Z,102425.47
2024-05-09T07:33:19.945Z,102419.47
2024-05-09T07:36:07.273Z,102425.78
2024-05-09T07:38:53.017Z,102432.91
2024-05-09T07:41:38.714Z,102432.16
2024-05-09T07:44:24.395Z,102429.69
2024-05-09T07:48:14.773Z,102434.16
2024-05-09T07:53:36.266Z,102431.66
2024-05-09T07:56:11.901Z,102439.59
2024-05-09T07:58:57.963Z,102427.34
2024-05-09T08:01:43.554Z,102434.34
2024-05-09T08:04:29.359Z,102429.97
2024-05-09T08:07:15.302Z,102431.72
2024-05-09T08:10:01.199Z,102433.47
2024-05-09T08:12:47.143Z,102430.00
2024-05-09T08:15:32.823Z,102425.66
2024-05-09T08:18:20.059Z,102433.56
2024-05-09T08:21:06.478Z,102428.34
2024-05-09T08:23:51.601Z,102424.88
2024-05-09T08:26:37.349Z,102427.53
2024-05-09T08:29:22.938Z,102424.97
2024-05-09T08:32:12.518Z,102428.53
2024-05-09T08:34:58.174Z,102425.97
2024-05-09T08:37:43.970Z,102429.53
2024-05-09T08:40:34.591Z,102426.06
2024-05-09T08:43:24.539Z,102422.59
2024-05-09T08:46:13.112Z,102416.50
2024-05-09T08:49:00.805Z,102418.28
2024-05-09T08:51:46.920Z,102412.19
2024-05-09T08:54:32.610Z,102420.13
2024-05-09T08:57:19.379Z,102413.16
2024-05-09T09:00:10.228Z,102407.03
2024-05-09T09:03:03.019Z,102406.19
2024-05-09T09:06:10.605Z,102404.47
2024-05-09T09:08:57.349Z,102414.13
2024-05-09T09:11:43.222Z,102420.28
2024-05-09T09:14:28.513Z,102412.44
2024-05-09T09:17:15.734Z,102412.44
2024-05-09T09:20:01.560Z,102417.72
2024-05-09T09:22:47.089Z,102421.28
2024-05-09T09:25:32.630Z,102423.91
2024-05-09T09:28:18.523Z,102423.94
2024-05-09T09:31:04.790Z,102416.03
2024-05-09T09:33:50.963Z,102422.22
2024-05-09T09:36:39.381Z,102411.69
2024-05-09T09:39:28.080Z,102402.97
2024-05-09T09:42:16.734Z,102402.97
2024-05-09T09:45:05.558Z,102405.66
2024-05-09T09:47:56.349Z,102400.38
2024-05-09T09:50:43.023Z,102400.47
2024-05-09T09:53:29.433Z,102402.19
2024-05-09T09:56:18.127Z,102382.03
2024-05-09T09:59:04.766Z,102391.69
2024-05-09T10:01:51.049Z,102393.47
2024-05-09T10:04:37.306Z,102403.13
2024-05-09T10:07:24.124Z,102402.25
2024-05-09T10:10:14.003Z,102403.13
2024-05-09T10:13:08.887Z,102401.38
2024-05-09T10:15:54.910Z,102394.34
2024-05-09T10:18:41.511Z,102390.84
2024-05-09T10:21:27.929Z,102391.69
2024-05-09T10:24:13.195Z,102385.56
2024-05-09T10:27:03.959Z,102389.97
2024-05-09T10:30:14.369Z,102390.84
2024-05-09T10:33:03.577Z,102404.88
2024-05-09T10:35:52.376Z,102404.00
2024-05-09T10:38:39.387Z,102405.75
2024-05-09T10:41:24.924Z,102408.41
2024-05-09T10:44:15.227Z,102410.16
2024-05-09T10:47:00.586Z,102404.91
2024-05-09T10:49:46.707Z,102406.63
2024-05-09T10:52:34.848Z,102407.53
2024-05-09T10:55:20.255Z,102397.84
2024-05-09T10:58:17.177Z,102401.38
2024-05-09T11:01:06.434Z,102403.16
2024-05-09T11:03:53.399Z,102394.34
2024-05-09T11:06:40.010Z,102393.47
2024-05-09T11:09:25.826Z,102382.91
2024-05-09T11:12:11.912Z,102382.03
2024-05-09T11:14:57.715Z,102393.44
2024-05-09T11:17:43.109Z,102389.06
2024-05-09T11:20:38.636Z,102387.28
2024-05-09T11:23:27.529Z,102385.50
2024-05-09T11:26:15.346Z,102375.84
2024-05-09T11:29:01.040Z,102378.44
2024-05-09T11:31:47.617Z,102380.16
2024-05-09T11:34:33.496Z,102379.19
2024-05-09T11:37:19.121Z,102375.59
2024-05-09T11:40:09.244Z,102372.03
2024-05-09T11:42:57.573Z,102364.84
2024-05-09T11:45:43.237Z,102362.06
2024-05-09T11:48:29.154Z,102366.13
2024-05-09T11:51:14.896Z,102359.63
2024-05-09T11:54:00.545Z,102352.31
2024-05-09T11:56:46.328Z,102359.00
2024-05-09T11:59:31.849Z,102352.63
2024-05-09T12:02:17.547Z,102338.31
2024-05-09T12:05:03.672Z,102332.84
2024-05-09T12:07:51.207Z,102338.75
2024-05-09T12:10:37.516Z,102326.19
2024-05-09T12:13:23.376Z,102325.44
2024-05-09T12:16:09.436Z,102328.06
2024-05-09T12:18:55.416Z,102325.19
2024-05-09T12:21:41.001Z,102314.63
2024-05-09T12:24:28.966Z,102313.72
2024-05-09T12:27:14.551Z,102313.81
2024-05-09T12:29:59.970Z,102307.06
2024-05-09T12:32:46.358Z,102316.03
2024-05-09T12:35:32.463Z,102311.78
2024-05-09T12:38:18.263Z,102311.53
2024-05-09T12:41:03.816Z,102307.41
2024-05-09T12:43:49.763Z,102308.59
2024-05-09T12:46:35.444Z,102307.41
2024-05-09T12:49:21.920Z,102308.34
2024-05-09T12:52:08.194Z,102308.91
2024-05-09T12:54:54.224Z,102306.84
2024-05-09T12:57:39.579Z,102305.75
2024-05-09T13:00:31.479Z,102308.75
2024-05-09T13:03:19.526Z,102300.03
2024-05-09T13:06:05.199Z,102295.31
2024-05-09T13:08:50.701Z,102296.31
2024-05-09T13:11:36.117Z,102292.03
2024-05-09T13:14:21.548Z,102294.91
2024-05-09T13:17:06.918Z,102289.97
2024-05-09T13:19:52.237Z,102287.72
2024-05-09T13:22:39.174Z,102280.97
2024-05-09T13:25:24.431Z,102281.94
2024-05-09T13:28:10.368Z,102280.72
2024-05-09T13:30:56.339Z,102284.94
2024-05-09T13:33:42.183Z,102282.00
2024-05-09T13:36:28.174Z,102278.41
2024-05-09T13:39:13.462Z,102271.25
2024-05-09T13:41:59.051Z,102265.56
2024-05-09T13:44:44.848Z,102262.25
2024-05-09T13:47:30.859Z,102262.25
2024-05-09T13:50:27.742Z,102262.09
2024-05-09T13:53:18.791Z,102263.41
2024-05-09T13:56:04.675Z,102262.28
2024-05-09T13:58:51.219Z,102259.66
2024-05-09T14:01:36.700Z,102258.41
2024-05-09T14:04:22.404Z,102252.66
2024-05-09T14:07:10.325Z,102254.94
2024-05-09T14:09:55.935Z,102250.06
2024-05-09T14:12:41.509Z,102250.22
2024-05-09T14:15:27.488Z,102246.19
2024-05-09T14:18:14.376Z,102241.72
2024-05-09T14:21:00.544Z,102245.91
2024-05-09T14:23:46.231Z,102239.31
2024-05-09T14:26:31.841Z,102240.31
2024-05-09T14:29:17.383Z,102226.25
2024-05-09T14:32:03.341Z,102234.78
2024-05-09T14:34:49.179Z,102237.81
2024-05-09T14:37:36.342Z,102227.66
2024-05-09T14:40:35.811Z,102223.81
2024-05-09T14:43:26.641Z,102222.88
2024-05-09T14:46:12.583Z,102222.44
2024-05-09T14:48:59.625Z,102222.34
2024-05-09T14:51:47.719Z,102210.63
2024-05-09T14:54:33.507Z,102219.78
2024-05-09T14:57:20.210Z,102216.81
2024-05-09T15:00:09.123Z,102218.28
2024-05-09T15:02:59.669Z,102211.75
2024-05-09T15:05:45.663Z,102211.06
2024-05-09T15:08:31.522Z,102201.97
2024-05-09T15:11:17.021Z,102194.91
2024-05-09T15:14:02.682Z,102205.31
2024-05-09T15:16:48.764Z,102193.25
2024-05-09T15:19:34.739Z,102183.59
2024-05-09T15:22:20.380Z,102190.19
2024-05-09T15:25:06.821Z,102188.81
2024-05-09T15:27:52.805Z,102186.44
2024-05-09T15:30:39.604Z,102189.13
2024-05-09T15:33:27.983Z,102180.50
2024-05-09T15:36:13.529Z,102182.31
2024-05-09T15:38:58.866Z,102184.47
2024-05-09T15:41:44.578Z,102177.50
2024-05-09T15:44:30.213Z,102179.84
2024-05-09T15:47:15.746Z,102174.44
2024-05-09T15:50:01.550Z,102175.19
2024-05-09T15:52:47.128Z,102173.09
2024-05-09T15:55:34.417Z,102176.56
2024-05-09T15:58:20.980Z,102166.53
2024-05-09T16:01:06.535Z,102155.31
2024-05-09T16:03:52.424Z,102168.88
2024-05-09T16:06:38.029Z,102164.50
2024-05-09T16:09:23.631Z,102176.47
2024-05-09T16:12:09.175Z,102163.66
2024-05-09T16:14:54.648Z,102170.31
2024-05-09T16:17:40.894Z,102175.91
2024-05-09T16:20:34.878Z,102171.78
2024-05-09T16:23:26.435Z,102176.34
2024-05-09T16:26:11.942Z,102164.19
2024-05-09T16:28:57.351Z,102168.78
2024-05-09T16:31:42.771Z,102163.69
2024-05-09T16:34:29.623Z,102159.41
2024-05-09T16:37:15.225Z,102160.38
2024-05-09T16:40:00.746Z,102162.09
2024-05-09T16:42:46.374Z,102163.94
2024-05-09T16:45:32.010Z,102168.38
2024-05-09T16:48:18.026Z,102152.63
2024-05-09T16:51:03.336Z,102153.59
2024-05-09T16:53:49.152Z,102149.28
2024-05-09T16:56:34.522Z,102150.06
2024-05-09T16:59:21.756Z,102143.03
2024-05-09T17:02:07.401Z,102137.88
2024-05-09T17:04:53.110Z,102143.28
2024-05-09T17:07:38.834Z,102134.66
2024-05-09T17:10:31.307Z,102131.22
2024-05-09T17:13:19.800Z,102134.75
2024-05-09T17:16:07.805Z,102136.56
2024-05-09T17:18:53.554Z,102134.03
2024-05-09T17:21:39.058Z,102133.25
2024-05-09T17:24:24.513Z,102141.16
2024-05-09T17:27:10.626Z,102140.34
2024-05-09T17:29:56.264Z,102138.63
2024-05-09T17:32:41.944Z,102142.19
2024-05-09T17:35:27.433Z,102146.59
2024-05-09T17:38:13.179Z,102133.41
2024-05-09T17:40:58.770Z,102138.69
2024-05-09T17:43:44.423Z,102140.47
2024-05-09T17:46:30.236Z,102144.00
2024-05-09T17:49:16.258Z,102142.22
2024-05-09T17:52:01.898Z,102144.88
2024-05-09T17:54:47.430Z,102144.03
2024-05-09T17:57:33.475Z,102143.19
2024-05-09T18:00:28.768Z,102147.63
2024-05-09T18:03:23.512Z,102139.75
2024-05-09T18:06:09.437Z,102145.91
2024-05-09T18:08:54.899Z,102142.41
2024-05-09T18:11:40.809Z,102151.16
2024-05-09T18:14:26.240Z,102149.44
2024-05-09T18:17:13.563Z,102151.22
2024-05-09T18:19:59.059Z,102150.34
2024-05-09T18:22:44.560Z,102155.59
2024-05-09T18:25:29.946Z,102150.31
2024-05-09T18:28:16.825Z,102152.97
2024-05-09T18:31:02.903Z,102146.84
2024-05-09T18:33:48.793Z,102149.44
2024-05-09T18:36:34.462Z,102145.06
2024-05-09T18:39:20.280Z,102149.41
2024-05-09T18:42:06.036Z,102143.25
2024-05-09T18:44:51.407Z,102143.25
2024-05-09T18:47:37.426Z,102139.75
2024-05-09T18:50:31.947Z,102146.72
2024-05-09T18:53:21.591Z,102152.81
2024-05-09T18:56:08.207Z,102147.50
2024-05-09T18:58:53.521Z,102152.72
2024-05-09T19:01:42.213Z,102159.69
2024-05-09T19:04:27.979Z,102150.94
2024-05-09T19:07:13.629Z,102155.25
2024-05-09T19:09:59.594Z,102152.59
2024-05-09T19:12:45.259Z,102153.38
2024-05-09T19:15:31.126Z,102168.25
2024-05-09T19:18:17.389Z,102168.22
2024-05-09T19:21:03.240Z,102162.91
2024-05-09T19:23:52.263Z,102169.88
2024-05-09T19:26:38.445Z,102168.06
2024-05-09T19:29:24.251Z,102163.66
2024-05-09T19:32:09.824Z,102159.22
2024-05-09T19:34:55.360Z,102161.78
2024-05-09T19:37:43.367Z,102158.25
2024-05-09T19:40:32.365Z,102159.06
2024-05-09T19:43:20.042Z,102152.00
2024-05-09T19:46:05.705Z,102158.06
2024-05-09T19:48:51.459Z,102148.38
2024-05-09T19:51:37.218Z,102161.44
2024-05-09T19:54:22.906Z,102165.69
2024-05-09T19:57:08.680Z,102163.91
2024-05-09T19:59:54.167Z,102162.06
2024-05-09T20:02:39.862Z,102162.03
2024-05-09T20:05:25.582Z,102160.22
2024-05-09T20:08:12.459Z,102159.25
2024-05-09T20:10:57.797Z,102167.06
2024-05-09T20:13:43.415Z,102164.41
2024-05-09T20:16:29.149Z,102172.22
2024-05-09T20:19:14.919Z,102171.28
2024-05-09T20:22:00.175Z,102168.63
2024-05-09T20:24:46.022Z,102164.16
2024-05-09T20:27:31.553Z,102172.78
2024-05-09T20:30:25.329Z,102173.59
2024-05-09T20:33:16.781Z,102181.44
2024-05-09T20:36:02.842Z,102183.13
2024-05-09T20:38:48.350Z,102181.34
2024-05-09T20:41:36.584Z,102173.50
2024-05-09T20:44:22.363Z,102174.31
2024-05-09T20:47:08.237Z,102176.06
2024-05-09T20:49:53.724Z,102180.34
2024-05-09T20:52:39.365Z,102183.81
2024-05-09T20:55:25.108Z,102179.44
2024-05-09T20:58:11.070Z,102171.47
2024-05-09T21:00:56.859Z,102174.03
2024-05-09T21:03:42.471Z,102175.69
2024-05-09T21:06:28.000Z,102175.59
2024-05-09T21:09:13.723Z,102170.31
2024-05-09T21:11:59.660Z,102180.72
2024-05-09T21:14:45.145Z,102172.78
2024-05-09T21:17:30.815Z,102166.59
2024-05-09T21:20:20.501Z,102160.47
2024-05-09T21:23:09.526Z,102166.50
2024-05-09T21:25:55.107Z,102165.59
2024-05-09T21:28:40.645Z,102167.34
2024-05-09T21:31:26.408Z,102164.72
2024-05-09T21:34:11.924Z,102169.91
2024-05-09T21:36:57.508Z,102165.50
2024-05-09T21:39:43.325Z,102163.78
2024-05-09T21:42:29.115Z,102157.63
2024-05-09T21:45:14.842Z,102155.88
2024-05-09T21:48:00.359Z,102173.50
2024-05-09T21:50:46.795Z,102171.84
2024-05-09T21:53:33.315Z,102172.81
2024-05-09T21:56:20.234Z,102172.00
2024-05-09T21:59:05.742Z,102172.84
2024-05-09T22:01:51.667Z,102170.19
2024-05-09T22:04:37.225Z,102166.63
2024-05-09T22:07:23.688Z,102167.47
2024-05-09T22:10:19.611Z,102167.41
2024-05-09T22:13:09.086Z,102169.09
2024-05-09T22:15:55.356Z,102164.66
2024-05-09T22:18:41.141Z,102169.84
2024-05-09T22:21:26.676Z,102168.03
2024-05-09T22:24:12.610Z,102172.31
2024-05-09T22:26:57.987Z,102169.72
2024-05-09T22:29:43.680Z,102160.09
2024-05-09T22:32:29.402Z,102166.22
2024-05-09T22:35:15.081Z,102167.09
2024-05-09T22:38:00.687Z,102163.72
2024-05-09T22:40:49.200Z,102156.75
2024-05-09T22:43:35.408Z,102159.44
2024-05-09T22:46:21.203Z,102166.47
2024-05-09T22:49:07.163Z,102163.91
2024-05-09T22:51:53.132Z,102159.53
2024-05-09T22:54:38.847Z,102161.31
2024-05-09T22:57:24.398Z,102155.19
2024-05-09T23:00:15.474Z,102164.75
2024-05-09T23:03:01.845Z,102157.81
2024-05-09T23:05:48.054Z,102156.91
2024-05-09T23:08:33.496Z,102167.34
2024-05-09T23:11:19.326Z,102169.09
2024-05-09T23:14:04.911Z,102170.00
2024-05-09T23:16:50.341Z,102163.91
2024-05-09T23:19:36.090Z,102164.72
2024-05-09T23:22:21.694Z,102162.13
2024-05-09T23:25:07.758Z,102166.50
2024-05-09T23:27:53.644Z,102164.75
2024-05-09T23:30:40.851Z,102165.59
2024-05-09T23:33:27.656Z,102169.97
2024-05-09T23:36:13.260Z,102174.34
2024-05-09T23:38:59.155Z,102173.50
2024-05-09T23:41:44.508Z,102163.91
2024-05-09T23:44:30.442Z,102166.53
2024-05-09T23:47:15.870Z,102169.16
2024-05-09T23:50:02.678Z,102164.75
2024-05-09T23:52:49.184Z,102163.91
2024-05-09T23:55:35.034Z,102163.09
2024-05-09T23:58:20.459Z,102156.97
